Time;durP1;ratioP1;P1;durP2;ratioP2;P2;SDS_P1;SDS_P2;PMS_P1;PMS_P2;Temp;Humidity;BMP_temperature;BMP_pressure;BME280_temperature;BME280_humidity;BME280_pressure;Samples;Min_cycle;Max_cycle;Signal;HPM_P1;HPM_P2
2023/08/13 00:02:08;;;;;;;30.10;29.03;;;20.70;99.90;;;;;;5073676;28;20207;-66
2023/08/13 00:04:35;;;;;;;34.60;33.37;;;20.70;99.90;;;;;;5073191;28;20227;-65
2023/08/13 00:07:01;;;;;;;25.97;25.03;;;20.70;99.90;;;;;;5073249;28;20205;-66
2023/08/13 00:09:28;;;;;;;26.23;25.33;;;20.70;99.90;;;;;;5078792;28;20213;-66
2023/08/13 00:11:55;;;;;;;25.90;25.00;;;20.70;99.90;;;;;;5079032;28;20203;-67
2023/08/13 00:14:24;;;;;;;27.67;26.73;;;20.70;99.90;;;;;;5073479;28;20226;-67
2023/08/13 00:16:50;;;;;;;25.17;24.27;;;20.70;99.90;;;;;;5074702;28;20582;-65
2023/08/13 00:19:17;;;;;;;25.20;24.30;;;20.70;99.90;;;;;;5074631;28;20203;-67
2023/08/13 00:21:44;;;;;;;23.50;22.63;;;20.70;99.90;;;;;;5074494;28;20208;-66
2023/08/13 00:24:11;;;;;;;22.05;21.25;;;20.70;99.90;;;;;;5077566;28;20338;-66
2023/08/13 00:26:38;;;;;;;24.85;23.95;;;20.60;99.90;;;;;;5090053;28;20195;-66
2023/08/13 00:29:05;;;;;;;24.63;23.73;;;20.60;99.90;;;;;;5074177;28;20302;-66
2023/08/13 00:31:33;;;;;;;22.77;21.97;;;20.60;99.90;;;;;;5072059;28;20210;-68
2023/08/13 00:34:00;;;;;;;22.27;21.48;;;20.60;99.90;;;;;;5071767;28;20234;-66
2023/08/13 00:36:26;;;;;;;23.93;23.03;;;20.50;99.90;;;;;;5071804;28;20223;-65
2023/08/13 00:38:53;;;;;;;27.43;26.40;;;20.50;99.90;;;;;;5071913;28;20649;-67
2023/08/13 00:41:20;;;;;;;30.70;29.50;;;20.50;99.90;;;;;;5071290;28;20211;-68
2023/08/13 00:43:47;;;;;;;25.03;24.13;;;20.60;99.90;;;;;;5070991;28;20199;-66
2023/08/13 00:46:14;;;;;;;23.80;22.93;;;20.50;99.90;;;;;;5071889;28;20207;-65
2023/08/13 00:48:43;;;;;;;21.47;20.77;;;20.50;99.90;;;;;;5072597;28;20310;-68
2023/08/13 00:51:11;;;;;;;23.20;22.40;;;20.50;99.90;;;;;;5072273;28;20290;-68
2023/08/13 00:53:45;;;;;;;21.90;21.10;;;20.50;99.90;;;;;;5072318;28;20211;-68
2023/08/13 00:56:13;;;;;;;22.57;21.77;;;20.50;99.90;;;;;;5072077;28;20598;-66
2023/08/13 00:58:40;;;;;;;21.07;20.37;;;20.50;99.90;;;;;;5071063;28;20204;-68
2023/08/13 01:01:07;;;;;;;23.03;22.13;;;20.60;99.90;;;;;;5070424;28;20203;-67
2023/08/13 01:03:36;;;;;;;25.80;24.90;;;20.60;99.90;;;;;;5071129;28;20203;-65
2023/08/13 01:06:12;;;;;;;24.43;23.43;;;20.60;99.90;;;;;;5070972;28;20199;-68
2023/08/13 01:08:48;;;;;;;25.70;24.70;;;20.60;99.90;;;;;;5071147;28;20253;-67
2023/08/13 01:11:37;;;;;;;21.42;20.67;;;20.50;99.90;;;;;;5070850;28;20203;-67
2023/08/13 01:14:13;;;;;;;20.52;19.75;;;20.50;99.90;;;;;;5070885;28;20704;-67
2023/08/13 01:16:42;;;;;;;20.00;19.30;;;20.50;99.90;;;;;;5070791;28;20233;-67
2023/08/13 01:19:10;;;;;;;20.70;20.00;;;20.60;99.90;;;;;;5070020;28;20226;-68
2023/08/13 01:21:38;;;;;;;21.65;20.85;;;20.60;99.90;;;;;;5070984;28;20292;-66
2023/08/13 01:24:07;;;;;;;18.27;17.67;;;20.60;99.90;;;;;;5072820;28;20263;-67
2023/08/13 01:26:40;;;;;;;21.30;20.60;;;20.60;99.90;;;;;;5072895;28;20206;-67
2023/08/13 01:29:12;;;;;;;18.73;18.13;;;20.60;99.90;;;;;;5071100;28;20301;-68
2023/08/13 01:31:40;;;;;;;18.77;18.07;;;20.60;99.90;;;;;;5071961;28;20215;-67
2023/08/13 01:34:08;;;;;;;20.23;19.53;;;20.70;99.90;;;;;;5076081;28;20294;-65
2023/08/13 01:36:35;;;;;;;20.00;19.30;;;20.70;99.90;;;;;;5080660;28;20233;-66
2023/08/13 01:39:02;;;;;;;19.33;18.63;;;20.80;99.90;;;;;;5067621;28;20221;-68
2023/08/13 01:41:36;;;;;;;20.73;20.03;;;20.80;99.90;;;;;;5070448;28;20214;-64
2023/08/13 01:44:03;;;;;;;20.57;19.87;;;20.80;99.90;;;;;;5076895;28;20218;-67
2023/08/13 01:46:30;;;;;;;19.87;19.17;;;20.90;99.90;;;;;;5071561;28;20288;-67
2023/08/13 01:48:57;;;;;;;20.50;19.80;;;20.90;99.90;;;;;;5070783;28;20584;-68
2023/08/13 01:51:23;;;;;;;20.50;19.80;;;20.80;99.90;;;;;;5069653;28;20203;-65
2023/08/13 01:53:50;;;;;;;19.20;18.53;;;20.80;99.90;;;;;;5070405;28;20248;-67
2023/08/13 01:56:17;;;;;;;20.87;20.17;;;20.80;99.90;;;;;;5070595;28;20237;-66
2023/08/13 01:58:45;;;;;;;19.60;18.90;;;20.80;99.90;;;;;;5070049;28;20604;-68
2023/08/13 02:01:12;;;;;;;22.80;22.00;;;20.70;99.90;;;;;;5069484;28;20209;-66
2023/08/13 02:03:39;;;;;;;23.10;22.30;;;20.60;99.90;;;;;;5069789;28;20676;-66
2023/08/13 02:06:05;;;;;;;23.77;22.97;;;20.60;99.90;;;;;;5069633;28;20599;-67
2023/08/13 02:08:33;;;;;;;20.80;20.10;;;20.60;99.90;;;;;;5071088;28;20612;-67
2023/08/13 02:10:59;;;;;;;22.90;22.10;;;20.60;99.90;;;;;;5070766;28;20260;-67
2023/08/13 02:13:26;;;;;;;21.50;20.77;;;20.60;99.90;;;;;;5071731;28;20219;-66
2023/08/13 02:15:54;;;;;;;21.93;21.13;;;20.50;99.90;;;;;;5070597;28;20227;-67
2023/08/13 02:18:21;;;;;;;20.50;19.80;;;20.60;99.90;;;;;;5072542;28;20211;-64
2023/08/13 02:20:48;;;;;;;22.63;21.83;;;20.60;99.90;;;;;;5081720;28;20297;-64
2023/08/13 02:23:15;;;;;;;25.73;24.83;;;20.60;99.90;;;;;;5072933;28;20217;-69
2023/08/13 02:25:41;;;;;;;26.47;25.47;;;20.60;99.90;;;;;;5076257;22;20232;-64
2023/08/13 02:28:08;;;;;;;22.80;22.00;;;20.50;99.90;;;;;;5049648;28;20215;-65
2023/08/13 02:30:37;;;;;;;24.23;23.33;;;20.60;99.90;;;;;;5049132;28;20204;-63
2023/08/13 02:33:06;;;;;;;22.83;22.03;;;20.60;99.90;;;;;;5049594;28;20298;-65
2023/08/13 02:35:33;;;;;;;26.33;25.33;;;20.60;99.90;;;;;;5049457;28;20253;-65
2023/08/13 02:37:59;;;;;;;29.77;28.70;;;20.50;99.90;;;;;;5049477;28;20681;-64
2023/08/13 02:40:26;;;;;;;24.90;24.05;;;20.60;99.90;;;;;;5048841;28;20299;-64
2023/08/13 02:42:53;;;;;;;25.35;24.45;;;20.60;99.90;;;;;;5049277;28;20673;-64
2023/08/13 02:45:20;;;;;;;21.37;20.57;;;20.60;99.90;;;;;;5050435;28;20314;-63
2023/08/13 02:47:47;;;;;;;20.37;19.67;;;20.60;99.90;;;;;;5050243;28;20195;-63
2023/08/13 02:50:15;;;;;;;20.70;20.00;;;20.60;99.90;;;;;;5049354;28;20204;-64
2023/08/13 02:52:42;;;;;;;22.80;22.00;;;20.60;99.90;;;;;;5049080;28;20674;-65
2023/08/13 02:55:09;;;;;;;20.93;20.23;;;20.60;99.90;;;;;;5049411;28;20238;-65
2023/08/13 02:57:36;;;;;;;22.17;21.37;;;20.70;99.90;;;;;;5049501;28;20259;-64
2023/08/13 03:00:03;;;;;;;18.37;17.67;;;20.70;99.90;;;;;;5049833;28;20199;-65
2023/08/13 03:02:30;;;;;;;18.73;18.03;;;20.70;99.90;;;;;;5050221;28;20599;-65
2023/08/13 03:04:58;;;;;;;18.07;17.47;;;20.70;99.90;;;;;;5049951;28;20220;-64
2023/08/13 03:07:26;;;;;;;19.03;18.37;;;20.70;99.90;;;;;;5050768;28;20202;-65
2023/08/13 03:09:53;;;;;;;19.70;19.00;;;20.80;99.90;;;;;;5052692;28;20212;-65
2023/08/13 03:12:20;;;;;;;22.90;22.10;;;20.70;99.90;;;;;;5053150;28;20208;-64
2023/08/13 03:14:47;;;;;;;21.20;20.50;;;20.70;99.90;;;;;;5052615;28;20604;-64
2023/08/13 03:17:14;;;;;;;19.60;18.90;;;20.60;99.90;;;;;;5053241;28;20340;-64
2023/08/13 03:19:41;;;;;;;21.20;20.50;;;20.60;99.90;;;;;;5050956;28;20239;-63
2023/08/13 03:22:08;;;;;;;19.67;18.98;;;20.60;99.90;;;;;;5054105;28;20568;-65
2023/08/13 03:24:36;;;;;;;20.53;19.83;;;20.60;99.90;;;;;;5054093;28;20239;-63
2023/08/13 03:27:03;;;;;;;18.13;17.53;;;20.50;99.90;;;;;;5053934;28;20207;-64
2023/08/13 03:29:30;;;;;;;18.70;17.70;;;20.50;99.90;;;;;;5052932;28;20214;-64
2023/08/13 03:31:57;;;;;;;17.97;17.33;;;20.50;99.90;;;;;;5053785;28;20551;-65
2023/08/13 03:34:24;;;;;;;18.87;18.07;;;20.40;99.90;;;;;;5053772;28;20227;-63
2023/08/13 03:36:52;;;;;;;17.03;16.43;;;20.50;99.90;;;;;;5053812;28;20259;-64
2023/08/13 03:39:19;;;;;;;17.77;17.17;;;20.50;99.90;;;;;;5053256;28;20583;-62
2023/08/13 03:41:47;;;;;;;16.87;16.27;;;20.50;99.90;;;;;;5054294;28;20210;-62
2023/08/13 03:44:14;;;;;;;18.13;17.53;;;20.40;99.90;;;;;;5053386;28;20251;-63
2023/08/13 03:46:41;;;;;;;15.17;14.67;;;20.50;99.90;;;;;;5051994;28;20204;-64
2023/08/13 03:49:07;;;;;;;19.60;18.90;;;20.50;99.90;;;;;;5051983;28;20200;-63
2023/08/13 03:51:34;;;;;;;19.33;18.63;;;20.50;99.90;;;;;;5052498;28;20208;-65
2023/08/13 03:54:01;;;;;;;21.97;21.17;;;20.60;99.90;;;;;;5052917;28;20214;-65
2023/08/13 03:56:28;;;;;;;21.90;21.10;;;20.60;99.90;;;;;;5052761;28;20216;-65
2023/08/13 03:58:56;;;;;;;19.23;18.53;;;20.70;99.90;;;;;;5052534;28;20496;-66
2023/08/13 04:01:23;;;;;;;17.90;17.30;;;20.70;99.90;;;;;;5052027;28;20200;-66
2023/08/13 04:03:50;;;;;;;16.60;16.00;;;20.70;99.90;;;;;;5052289;28;20704;-65
2023/08/13 04:06:17;;;;;;;16.83;16.23;;;20.60;99.90;;;;;;5052632;28;20520;-65
2023/08/13 04:08:43;;;;;;;20.20;19.50;;;20.60;99.90;;;;;;5052169;28;20204;-66
2023/08/13 04:11:10;;;;;;;19.17;18.47;;;20.60;99.90;;;;;;5053024;28;20216;-64
2023/08/13 04:13:37;;;;;;;18.40;17.80;;;20.70;99.90;;;;;;5061336;28;20275;-67
2023/08/13 04:16:05;;;;;;;18.37;17.73;;;20.60;99.90;;;;;;5069019;28;20701;-65
2023/08/13 04:18:32;;;;;;;18.07;17.37;;;20.60;99.90;;;;;;5066340;28;20212;-66
2023/08/13 04:20:59;;;;;;;18.10;17.40;;;20.60;99.90;;;;;;5052219;28;20211;-65
2023/08/13 04:23:26;;;;;;;17.10;16.50;;;20.60;99.90;;;;;;5052175;28;20199;-64
2023/08/13 04:25:52;;;;;;;17.67;17.07;;;20.60;99.90;;;;;;5051691;28;20263;-65
2023/08/13 04:28:19;;;;;;;16.30;15.70;;;20.60;99.90;;;;;;5051757;28;20230;-64
2023/08/13 04:30:46;;;;;;;16.83;16.23;;;20.60;99.90;;;;;;5051395;28;20208;-64
2023/08/13 04:33:14;;;;;;;16.83;16.23;;;20.60;99.90;;;;;;5053267;28;20298;-64
2023/08/13 04:35:41;;;;;;;39.47;37.63;;;20.60;99.90;;;;;;5060173;28;20288;-66
2023/08/13 04:38:08;;;;;;;23.20;22.33;;;20.60;99.90;;;;;;5062767;28;20291;-66
2023/08/13 04:40:35;;;;;;;20.17;19.47;;;20.60;99.90;;;;;;5060646;28;20291;-64
2023/08/13 04:43:02;;;;;;;16.90;16.30;;;20.60;99.90;;;;;;5058563;28;20208;-65
2023/08/13 04:45:28;;;;;;;17.80;17.20;;;20.70;99.90;;;;;;5052296;28;20238;-64
2023/08/13 04:47:55;;;;;;;19.27;18.57;;;20.70;99.90;;;;;;5051838;28;20196;-65
2023/08/13 04:50:24;;;;;;;18.33;17.73;;;20.70;99.90;;;;;;5051185;28;20700;-65
2023/08/13 04:52:50;;;;;;;18.27;17.57;;;20.70;99.90;;;;;;5051473;28;20203;-66
2023/08/13 04:55:17;;;;;;;17.90;17.30;;;20.70;99.90;;;;;;5051568;28;20235;-65
2023/08/13 04:57:44;;;;;;;17.00;16.40;;;20.70;99.90;;;;;;5051169;28;20314;-66
2023/08/13 05:00:12;;;;;;;16.97;16.37;;;20.70;99.90;;;;;;5050375;28;20650;-65
2023/08/13 05:02:39;;;;;;;18.53;17.90;;;20.70;99.90;;;;;;5051161;28;20200;-64
2023/08/13 05:05:06;;;;;;;18.70;18.00;;;20.70;99.90;;;;;;5050833;28;20234;-64
2023/08/13 05:07:34;;;;;;;17.63;17.03;;;20.80;99.90;;;;;;5051059;28;20214;-65
2023/08/13 05:10:01;;;;;;;17.07;16.47;;;20.80;99.90;;;;;;5050380;28;20200;-64
2023/08/13 05:12:28;;;;;;;16.60;16.00;;;20.80;99.90;;;;;;5050720;28;20239;-64
2023/08/13 05:14:55;;;;;;;15.67;15.17;;;20.80;99.90;;;;;;5050711;28;20232;-64
2023/08/13 05:17:22;;;;;;;16.37;15.83;;;20.80;99.90;;;;;;5049548;28;20591;-64
2023/08/13 05:19:50;;;;;;;16.67;16.07;;;20.90;99.90;;;;;;5051061;28;20958;-64
2023/08/13 05:22:16;;;;;;;16.10;15.52;;;20.90;99.90;;;;;;5051727;28;20729;-64
2023/08/13 05:24:46;;;;;;;14.63;14.13;;;20.90;99.90;;;;;;5051865;28;20236;-64
2023/08/13 05:27:13;;;;;;;16.83;16.23;;;21.00;99.90;;;;;;5053119;28;20213;-64
2023/08/13 05:29:40;;;;;;;17.30;16.70;;;21.00;99.90;;;;;;5051645;28;20217;-64
2023/08/13 05:32:07;;;;;;;20.50;19.80;;;20.90;99.90;;;;;;5052162;28;20210;-65
2023/08/13 05:34:34;;;;;;;16.07;15.53;;;20.90;99.90;;;;;;5052774;28;20613;-65
2023/08/13 05:37:01;;;;;;;18.10;17.50;;;20.80;99.90;;;;;;5052750;28;20234;-64
2023/08/13 05:39:27;;;;;;;18.48;17.83;;;20.80;99.90;;;;;;5051647;28;20639;-64
2023/08/13 05:41:55;;;;;;;18.37;17.77;;;20.80;99.90;;;;;;5051853;28;20218;-64
2023/08/13 05:44:22;;;;;;;17.13;16.53;;;20.90;99.90;;;;;;5051992;28;20249;-63
2023/08/13 05:46:49;;;;;;;16.43;15.83;;;20.90;99.90;;;;;;5051951;28;20662;-64
2023/08/13 05:49:16;;;;;;;19.17;18.47;;;20.90;99.90;;;;;;5050448;28;20557;-64
2023/08/13 05:51:43;;;;;;;21.17;20.40;;;20.90;99.90;;;;;;5050594;28;20294;-64
2023/08/13 05:54:10;;;;;;;17.37;16.77;;;20.90;99.90;;;;;;5050141;28;20315;-65
2023/08/13 05:56:38;;;;;;;19.20;18.50;;;21.00;99.90;;;;;;5050063;28;20299;-64
2023/08/13 05:59:06;;;;;;;22.60;21.80;;;21.00;99.90;;;;;;5049847;28;20211;-64
2023/08/13 06:01:33;;;;;;;18.87;18.20;;;21.00;99.90;;;;;;5049524;28;20587;-64
2023/08/13 06:04:00;;;;;;;19.27;18.58;;;21.10;99.90;;;;;;5049699;28;20218;-65
2023/08/13 06:06:27;;;;;;;19.60;18.90;;;21.00;99.90;;;;;;5049963;28;20207;-64
2023/08/13 06:08:54;;;;;;;21.43;20.63;;;21.10;99.90;;;;;;5049834;28;20211;-63
2023/08/13 06:11:21;;;;;;;21.30;20.57;;;21.10;99.90;;;;;;5048988;28;20200;-65
2023/08/13 06:13:47;;;;;;;19.03;18.33;;;21.10;99.90;;;;;;5055222;28;20206;-64
2023/08/13 06:16:15;;;;;;;17.70;17.10;;;21.20;99.90;;;;;;5049818;28;20219;-64
2023/08/13 06:18:42;;;;;;;19.10;18.40;;;21.20;99.90;;;;;;5049685;28;20223;-64
2023/08/13 06:21:09;;;;;;;18.47;17.87;;;21.20;99.90;;;;;;5051039;28;20749;-64
2023/08/13 06:23:36;;;;;;;19.03;18.43;;;21.20;99.90;;;;;;5050679;28;20214;-66
2023/08/13 06:26:03;;;;;;;21.30;20.50;;;21.30;99.90;;;;;;5050915;28;20235;-64
2023/08/13 06:28:29;;;;;;;20.23;19.43;;;21.30;99.90;;;;;;5056332;28;20674;-65
2023/08/13 06:30:56;;;;;;;18.60;17.90;;;21.30;99.90;;;;;;5051121;28;20303;-64
2023/08/13 06:33:24;;;;;;;19.60;18.90;;;21.30;99.90;;;;;;5051833;28;20572;-64
2023/08/13 06:35:51;;;;;;;21.87;21.10;;;21.30;99.90;;;;;;5053039;28;20611;-64
2023/08/13 06:38:18;;;;;;;17.57;16.93;;;21.30;99.90;;;;;;5049827;28;20652;-65
2023/08/13 06:40:45;;;;;;;19.40;18.70;;;21.40;99.90;;;;;;5049054;28;20208;-66
2023/08/13 06:43:13;;;;;;;19.57;18.90;;;21.40;99.90;;;;;;5052787;28;20277;-65
2023/08/13 06:45:40;;;;;;;17.23;16.67;;;21.50;99.90;;;;;;5053647;28;20622;-64
2023/08/13 06:48:07;;;;;;;17.03;16.47;;;21.50;99.90;;;;;;5053766;28;20200;-64
2023/08/13 06:50:36;;;;;;;17.65;17.05;;;21.60;99.90;;;;;;5054103;28;20207;-64
2023/08/13 06:53:02;;;;;;;18.63;17.97;;;21.60;99.90;;;;;;5055218;28;20208;-65
2023/08/13 06:55:29;;;;;;;13.30;12.83;;;21.60;99.90;;;;;;5054368;28;20250;-66
2023/08/13 06:57:56;;;;;;;16.37;15.80;;;21.70;99.90;;;;;;5054041;28;20223;-64
2023/08/13 07:00:23;;;;;;;13.57;13.10;;;21.60;99.90;;;;;;5052388;28;20208;-64
2023/08/13 07:02:50;;;;;;;18.23;17.60;;;21.60;99.90;;;;;;5055096;28;20208;-64
2023/08/13 07:05:18;;;;;;;14.03;13.53;;;21.50;99.90;;;;;;5054487;28;20304;-65
2023/08/13 07:07:46;;;;;;;14.37;13.87;;;21.50;99.90;;;;;;5054717;28;20219;-63
2023/08/13 07:10:13;;;;;;;16.33;15.77;;;21.50;99.90;;;;;;5054371;28;20303;-64
2023/08/13 07:12:40;;;;;;;17.30;16.70;;;21.50;99.90;;;;;;5055113;28;20681;-66
2023/08/13 07:15:07;;;;;;;14.63;14.17;;;21.50;99.90;;;;;;5055753;28;20230;-65
2023/08/13 07:17:34;;;;;;;16.47;15.90;;;21.60;99.90;;;;;;5055614;28;20220;-65
2023/08/13 07:20:04;;;;;;;16.10;15.57;;;21.60;99.90;;;;;;5054497;28;20200;-66
2023/08/13 07:22:30;;;;;;;16.47;15.90;;;21.60;99.90;;;;;;5053490;28;20307;-65
2023/08/13 07:24:59;;;;;;;15.03;14.47;;;21.60;99.90;;;;;;5052749;28;20326;-64
2023/08/13 07:27:25;;;;;;;14.63;14.13;;;21.60;99.90;;;;;;5052579;28;20200;-65
2023/08/13 07:29:52;;;;;;;14.05;13.57;;;21.70;99.90;;;;;;5052137;28;20294;-64
2023/08/13 07:32:19;;;;;;;14.17;13.70;;;21.80;99.90;;;;;;5052675;28;20674;-64
2023/08/13 07:34:46;;;;;;;13.67;13.20;;;21.90;99.90;;;;;;5053199;28;20619;-66
2023/08/13 07:37:13;;;;;;;13.77;13.30;;;22.00;99.90;;;;;;5052270;28;20242;-64
2023/08/13 07:39:40;;;;;;;14.20;13.70;;;22.00;99.90;;;;;;5052085;28;20427;-66
2023/08/13 07:42:08;;;;;;;14.80;14.30;;;22.00;99.90;;;;;;5052950;28;20226;-65
2023/08/13 07:44:35;;;;;;;13.80;13.30;;;22.00;99.90;;;;;;5053499;28;20262;-65
2023/08/13 07:47:02;;;;;;;12.82;12.38;;;22.00;99.90;;;;;;5052740;28;20730;-65
2023/08/13 07:49:29;;;;;;;15.03;14.53;;;21.90;99.90;;;;;;5052171;28;20226;-64
2023/08/13 07:51:56;;;;;;;14.23;13.63;;;22.00;99.90;;;;;;5054776;28;20208;-64
2023/08/13 07:54:23;;;;;;;14.00;13.50;;;22.00;99.90;;;;;;5053986;28;20311;-65
2023/08/13 07:56:50;;;;;;;13.63;13.17;;;22.00;99.90;;;;;;5054491;28;20219;-65
2023/08/13 07:59:19;;;;;;;14.83;14.33;;;22.00;99.90;;;;;;5052658;28;20234;-65
2023/08/13 08:01:46;;;;;;;14.50;14.00;;;22.00;99.90;;;;;;5052472;28;20292;-64
2023/08/13 08:04:13;;;;;;;15.00;14.50;;;22.00;99.90;;;;;;5051569;28;20336;-63
2023/08/13 08:06:40;;;;;;;16.17;15.63;;;21.90;99.90;;;;;;5052430;28;20295;-64
2023/08/13 08:09:07;;;;;;;14.75;14.20;;;21.90;99.90;;;;;;5051807;28;20578;-64
2023/08/13 08:11:34;;;;;;;14.40;13.90;;;22.00;99.90;;;;;;5053036;28;20204;-64
2023/08/13 08:14:01;;;;;;;15.33;14.83;;;22.00;99.90;;;;;;5052618;28;20211;-65
2023/08/13 08:16:29;;;;;;;14.63;14.13;;;22.20;99.90;;;;;;5052551;28;20216;-65
2023/08/13 08:18:56;;;;;;;13.87;13.37;;;22.30;99.90;;;;;;5052780;28;20270;-66
2023/08/13 08:21:23;;;;;;;17.10;16.50;;;22.50;99.90;;;;;;5051634;28;20208;-64
2023/08/13 08:23:50;;;;;;;15.43;14.87;;;22.80;99.90;;;;;;5051620;28;20212;-63
2023/08/13 08:26:16;;;;;;;17.00;16.40;;;23.00;99.90;;;;;;5084861;22;20719;-65
2023/08/13 08:28:43;;;;;;;15.60;15.10;;;23.00;99.90;;;;;;5054584;28;20610;-65
2023/08/13 08:31:10;;;;;;;13.95;13.48;;;23.00;99.90;;;;;;5050989;28;20215;-65
2023/08/13 08:33:38;;;;;;;12.95;12.48;;;23.10;99.90;;;;;;5052606;28;20310;-65
2023/08/13 08:36:05;;;;;;;12.23;11.83;;;23.10;99.90;;;;;;5052747;28;20313;-65
2023/08/13 08:38:32;;;;;;;11.47;11.07;;;23.10;99.90;;;;;;5051778;28;20224;-64
2023/08/13 08:40:59;;;;;;;11.43;11.02;;;23.20;99.90;;;;;;5050832;28;20200;-64
2023/08/13 08:43:30;;;;;;;11.13;10.73;;;23.40;99.90;;;;;;5051339;28;20212;-64
2023/08/13 08:45:58;;;;;;;10.50;10.13;;;23.50;99.90;;;;;;5051011;28;20228;-64
2023/08/13 08:48:27;;;;;;;9.93;9.63;;;23.50;99.90;;;;;;5051287;28;20211;-65
2023/08/13 08:50:56;;;;;;;9.43;9.13;;;23.60;99.90;;;;;;5050773;28;20204;-63
2023/08/13 08:53:23;;;;;;;10.93;10.52;;;23.60;99.90;;;;;;5051056;28;20580;-64
2023/08/13 08:55:50;;;;;;;10.57;10.18;;;23.80;99.90;;;;;;5051569;28;20232;-64
2023/08/13 08:58:17;;;;;;;10.00;9.60;;;23.90;99.90;;;;;;5051746;28;20246;-64
2023/08/13 09:00:44;;;;;;;9.63;9.32;;;23.90;99.90;;;;;;5051116;28;20211;-63
2023/08/13 09:03:11;;;;;;;9.67;9.37;;;24.10;99.90;;;;;;5050731;28;20307;-63
2023/08/13 09:05:39;;;;;;;11.05;10.68;;;24.40;99.90;;;;;;5049722;28;20231;-64
2023/08/13 09:08:12;;;;;;;9.30;9.00;;;24.60;99.90;;;;;;5052037;28;20204;-64
2023/08/13 09:10:42;;;;;;;10.20;9.90;;;24.90;99.90;;;;;;5051646;28;20662;-63
2023/08/13 09:13:09;;;;;;;10.30;10.00;;;24.90;99.90;;;;;;5051562;28;20255;-63
2023/08/13 09:15:41;;;;;;;10.90;10.50;;;24.90;99.90;;;;;;5051849;28;20604;-64
2023/08/13 09:18:08;;;;;;;12.93;12.50;;;24.90;99.90;;;;;;5051271;28;20255;-64
2023/08/13 09:20:44;;;;;;;10.70;10.30;;;24.70;99.90;;;;;;5051404;28;20204;-62
2023/08/13 09:23:20;;;;;;;11.30;10.90;;;24.80;99.90;;;;;;5050813;28;20207;-63
2023/08/13 09:25:47;;;;;;;12.25;11.85;;;24.90;99.90;;;;;;5052052;28;20318;-62
2023/08/13 09:28:14;;;;;;;11.10;10.70;;;24.90;99.90;;;;;;5054896;28;20227;-62
2023/08/13 09:30:41;;;;;;;10.53;10.20;;;24.90;99.90;;;;;;5059048;28;20218;-62
2023/08/13 09:33:08;;;;;;;10.13;9.82;;;24.80;99.90;;;;;;5057467;28;20207;-63
2023/08/13 09:35:35;;;;;;;10.88;10.50;;;24.70;99.90;;;;;;5052412;28;20597;-63
2023/08/13 09:38:02;;;;;;;10.73;10.33;;;24.50;99.90;;;;;;5054053;28;20323;-63
2023/08/13 09:40:30;;;;;;;9.80;9.43;;;24.30;99.90;;;;;;5053513;28;20210;-64
2023/08/13 09:42:59;;;;;;;10.32;9.93;;;24.20;99.90;;;;;;5054130;28;20246;-64
2023/08/13 09:45:28;;;;;;;10.93;10.52;;;24.10;99.90;;;;;;5053074;28;20231;-65
2023/08/13 09:47:56;;;;;;;12.52;12.13;;;24.00;99.90;;;;;;5054080;28;20575;-66
2023/08/13 09:50:28;;;;;;;13.93;13.43;;;23.90;99.90;;;;;;5051533;28;20376;-65
2023/08/13 09:52:57;;;;;;;13.18;12.73;;;23.70;99.90;;;;;;5051249;28;20298;-65
2023/08/13 09:55:32;;;;;;;15.65;15.15;;;23.60;99.90;;;;;;5053113;28;20231;-64
2023/08/13 09:58:01;;;;;;;12.37;11.97;;;23.70;99.90;;;;;;5055969;28;20877;-64
2023/08/13 10:00:28;;;;;;;14.23;13.73;;;23.90;99.90;;;;;;5052240;28;20510;-64
2023/08/13 10:02:55;;;;;;;14.00;13.52;;;24.10;99.90;;;;;;5053859;28;20295;-63
2023/08/13 10:05:22;;;;;;;11.27;10.88;;;24.30;99.90;;;;;;5052460;28;20647;-64
2023/08/13 10:07:49;;;;;;;15.52;15.02;;;24.40;99.90;;;;;;5050928;28;20239;-64
2023/08/13 10:10:17;;;;;;;14.13;13.63;;;24.30;99.90;;;;;;5049501;28;20744;-63
2023/08/13 10:12:46;;;;;;;12.25;11.85;;;24.30;99.90;;;;;;5050094;28;20600;-64
2023/08/13 10:15:13;;;;;;;10.27;9.98;;;24.40;99.90;;;;;;5052787;28;20220;-63
2023/08/13 10:17:40;;;;;;;16.10;15.52;;;24.50;99.90;;;;;;5051942;28;20204;-62
2023/08/13 10:20:09;;;;;;;16.63;16.07;;;24.60;99.90;;;;;;5051556;28;20250;-65
2023/08/13 10:22:37;;;;;;;15.73;15.20;;;24.60;99.90;;;;;;5050121;28;20246;-65
2023/08/13 10:25:06;;;;;;;18.15;17.45;;;24.40;99.90;;;;;;5050109;28;20240;-64
2023/08/13 10:27:36;;;;;;;14.10;13.60;;;24.20;99.90;;;;;;5050300;28;20231;-64
2023/08/13 10:30:10;;;;;;;15.93;15.43;;;24.10;99.90;;;;;;5049518;28;20584;-63
2023/08/13 10:32:49;;;;;;;15.90;15.30;;;24.00;99.90;;;;;;5049992;28;20214;-63
2023/08/13 10:35:24;;;;;;;11.07;10.70;;;24.20;99.90;;;;;;5050391;28;20299;-62
2023/08/13 10:37:53;;;;;;;11.55;11.15;;;24.30;99.90;;;;;;5049903;28;20211;-62
2023/08/13 10:40:20;;;;;;;11.63;11.23;;;24.40;99.90;;;;;;5048988;28;20223;-64
2023/08/13 10:42:49;;;;;;;11.70;11.30;;;24.50;99.90;;;;;;5049126;28;20208;-64
2023/08/13 10:45:19;;;;;;;11.50;11.10;;;24.80;99.90;;;;;;5048186;28;20235;-64
2023/08/13 10:47:47;;;;;;;11.47;11.07;;;25.20;99.90;;;;;;5049418;28;20298;-65
2023/08/13 10:50:28;;;;;;;14.68;14.18;;;25.60;99.90;;;;;;5048845;28;20200;-64
2023/08/13 10:53:02;;;;;;;11.97;11.57;;;25.80;99.90;;;;;;5049746;28;20208;-64
2023/08/13 10:55:30;;;;;;;12.45;11.95;;;25.90;99.90;;;;;;5049264;28;20235;-64
2023/08/13 10:57:57;;;;;;;11.30;10.90;;;25.70;99.90;;;;;;5049763;28;20630;-64
2023/08/13 11:00:27;;;;;;;13.73;13.23;;;26.00;99.90;;;;;;5048713;28;20739;-64
2023/08/13 11:02:57;;;;;;;14.33;13.83;;;26.20;99.90;;;;;;5049233;28;20208;-64
2023/08/13 11:05:24;;;;;;;15.23;14.73;;;26.30;99.90;;;;;;5049359;28;20322;-64
2023/08/13 11:07:52;;;;;;;24.60;23.67;;;26.40;99.90;;;;;;5049343;28;20200;-65
2023/08/13 11:10:20;;;;;;;12.17;11.77;;;26.40;99.90;;;;;;5048461;28;20211;-64
2023/08/13 11:12:48;;;;;;;15.63;15.07;;;26.20;99.90;;;;;;5048879;28;20204;-64
2023/08/13 11:15:15;;;;;;;24.00;23.07;;;26.00;99.90;;;;;;5049819;28;20605;-64
2023/08/13 11:17:46;;;;;;;15.48;14.98;;;25.90;99.90;;;;;;5048287;28;20216;-64
2023/08/13 11:20:14;;;;;;;17.90;17.27;;;26.00;99.90;;;;;;5048198;28;20220;-65
2023/08/13 11:22:42;;;;;;;18.00;17.40;;;26.10;99.90;;;;;;5049125;28;20222;-65
2023/08/13 11:25:10;;;;;;;15.65;15.15;;;26.30;99.90;;;;;;5049042;28;20250;-64
2023/08/13 11:27:37;;;;;;;14.88;14.38;;;26.40;99.90;;;;;;5049059;28;20254;-64
2023/08/13 11:30:04;;;;;;;17.60;17.00;;;26.50;99.90;;;;;;5052246;28;20210;-64
2023/08/13 11:32:31;;;;;;;16.25;15.65;;;26.70;99.90;;;;;;5052678;28;20261;-64
2023/08/13 11:35:00;;;;;;;17.30;16.70;;;27.00;99.90;;;;;;5052914;28;20220;-64
2023/08/13 11:37:26;;;;;;;18.25;17.58;;;27.30;99.90;;;;;;5052885;28;20208;-64
2023/08/13 11:39:53;;;;;;;15.20;14.70;;;27.40;99.90;;;;;;5052129;28;20223;-64
2023/08/13 11:42:19;;;;;;;14.10;13.60;;;27.50;99.90;;;;;;5052682;28;20204;-65
2023/08/13 11:44:49;;;;;;;14.32;13.82;;;27.70;99.90;;;;;;5052359;28;20262;-65
2023/08/13 11:47:24;;;;;;;15.55;15.05;;;27.90;99.90;;;;;;5053207;28;20208;-64
2023/08/13 11:49:52;;;;;;;15.98;15.45;;;27.90;99.90;;;;;;5053538;28;20203;-65
2023/08/13 11:52:20;;;;;;;14.93;14.40;;;28.00;99.90;;;;;;5053530;28;20211;-65
2023/08/13 11:54:48;;;;;;;14.65;14.15;;;28.00;99.90;;;;;;5053172;28;20228;-64
2023/08/13 11:57:15;;;;;;;13.75;13.27;;;27.80;99.90;;;;;;5053887;28;20207;-64
2023/08/13 11:59:42;;;;;;;13.50;13.00;;;27.70;99.90;;;;;;5052947;28;20475;-64
2023/08/13 12:02:09;;;;;;;13.82;13.32;;;27.90;99.90;;;;;;5052998;28;20305;-64
2023/08/13 12:04:36;;;;;;;14.68;14.18;;;27.90;99.90;;;;;;5053498;28;20232;-64
2023/08/13 12:07:07;;;;;;;14.70;14.20;;;28.10;99.90;;;;;;5053946;28;20207;-65
2023/08/13 12:09:35;;;;;;;13.27;12.85;;;28.20;99.90;;;;;;5051764;28;20228;-63
2023/08/13 12:12:02;;;;;;;12.98;12.50;;;28.40;99.90;;;;;;5052079;28;20616;-64
2023/08/13 12:14:29;;;;;;;12.93;12.52;;;28.60;99.90;;;;;;5052324;28;20224;-63
2023/08/13 12:16:57;;;;;;;12.63;12.23;;;28.70;99.90;;;;;;5052242;28;20207;-65
2023/08/13 12:19:24;;;;;;;12.20;11.80;;;28.70;99.90;;;;;;5051206;28;20238;-64
2023/08/13 12:21:50;;;;;;;12.73;12.32;;;28.70;99.90;;;;;;5051823;28;20669;-65
2023/08/13 12:24:17;;;;;;;12.50;12.10;;;28.60;99.90;;;;;;5051537;28;20677;-66
2023/08/13 12:26:45;;;;;;;11.65;11.25;;;28.70;99.90;;;;;;5051671;28;20216;-64
2023/08/13 12:29:12;;;;;;;13.05;12.55;;;28.90;99.90;;;;;;5051069;28;20242;-64
2023/08/13 12:31:39;;;;;;;10.98;10.57;;;28.90;99.90;;;;;;5053069;28;20207;-64